createdAt,value
2019-03-26T00:02:29.415Z,72.70
2019-03-26T00:07:32.517Z,72.87
2019-03-26T00:12:35.286Z,72.67
2019-03-26T00:17:38.193Z,72.65
2019-03-26T00:22:40.935Z,72.74
2019-03-26T00:27:43.672Z,72.79
2019-03-26T00:32:46.558Z,72.81
2019-03-26T00:37:49.185Z,72.88
2019-03-26T00:42:51.903Z,73.03
2019-03-26T00:47:54.517Z,72.77
2019-03-26T00:52:57.292Z,73.05
2019-03-26T00:58:01.702Z,73.14
2019-03-26T01:03:05.474Z,73.21
2019-03-26T01:08:08.384Z,72.99
2019-03-26T01:13:11.211Z,73.26
2019-03-26T01:18:13.890Z,73.40
2019-03-26T01:23:16.717Z,73.43
2019-03-26T01:28:19.426Z,73.63
2019-03-26T01:33:22.371Z,73.89
2019-03-26T01:38:25.018Z,73.80
2019-03-26T01:43:28.088Z,73.83
2019-03-26T01:48:30.761Z,73.89
2019-03-26T01:53:33.388Z,74.15
2019-03-26T01:58:36.075Z,74.11
2019-03-26T02:03:38.821Z,74.26
2019-03-26T02:08:41.445Z,74.71
2019-03-26T02:13:44.394Z,74.47
2019-03-26T02:18:47.074Z,74.92
2019-03-26T02:23:49.808Z,74.76
2019-03-26T02:28:52.782Z,75.25
2019-03-26T02:33:55.762Z,75.31
2019-03-26T02:38:58.404Z,75.49
2019-03-26T02:44:01.093Z,75.77
2019-03-26T02:49:03.773Z,75.49
2019-03-26T02:54:06.405Z,76.16
2019-03-26T02:59:09.025Z,76.50
2019-03-26T03:04:11.672Z,76.68
2019-03-26T03:09:14.265Z,76.99
2019-03-26T03:14:16.979Z,77.00
2019-03-26T03:19:19.733Z,77.49
2019-03-26T03:24:22.394Z,77.46
2019-03-26T03:29:25.070Z,77.57
2019-03-26T03:34:27.926Z,78.18
2019-03-26T03:39:30.729Z,78.26
2019-03-26T03:44:33.654Z,78.37
2019-03-26T03:49:36.595Z,78.27
2019-03-26T03:54:41.553Z,78.63
2019-03-26T03:59:45.440Z,78.52
2019-03-26T04:04:48.168Z,78.55
2019-03-26T04:09:50.845Z,78.70
2019-03-26T04:14:53.525Z,78.77
2019-03-26T04:19:56.202Z,78.53
2019-03-26T04:24:58.880Z,79.16
2019-03-26T04:30:01.874Z,79.12
2019-03-26T04:35:04.884Z,79.40
2019-03-26T04:40:07.798Z,79.76
2019-03-26T04:45:10.546Z,79.17
2019-03-26T04:50:13.287Z,79.37
2019-03-26T04:55:16.134Z,79.15
2019-03-26T05:00:19.068Z,80.02
2019-03-26T05:05:21.804Z,80.50
2019-03-26T05:10:24.462Z,79.97
2019-03-26T05:15:27.156Z,80.67
2019-03-26T05:20:29.955Z,80.82
2019-03-26T05:25:32.657Z,80.55
2019-03-26T05:30:35.308Z,80.66
2019-03-26T05:35:38.210Z,80.26
2019-03-26T05:40:40.846Z,79.97
2019-03-26T05:45:43.713Z,80.32
2019-03-26T05:50:46.384Z,80.22
2019-03-26T05:55:49.458Z,79.88
2019-03-26T06:00:52.155Z,79.73
2019-03-26T06:05:55.096Z,79.72
2019-03-26T06:10:57.774Z,79.93
2019-03-26T06:16:00.400Z,78.78
2019-03-26T06:21:03.340Z,79.02
2019-03-26T06:26:06.182Z,78.79
2019-03-26T06:31:08.904Z,78.16
2019-03-26T06:36:11.778Z,78.17
2019-03-26T06:41:14.462Z,78.14
2019-03-26T06:46:17.160Z,77.99
2019-03-26T06:51:20.140Z,77.95
2019-03-26T06:56:22.968Z,77.65
2019-03-26T07:01:25.969Z,77.16
2019-03-26T07:06:28.631Z,77.17
2019-03-26T07:11:31.293Z,77.21
2019-03-26T07:16:34.162Z,76.07
2019-03-26T07:21:49.075Z,75.27
2019-03-26T07:26:41.646Z,75.33
2019-03-26T07:31:44.430Z,76.47
2019-03-26T07:36:47.286Z,76.11
2019-03-26T07:41:50.310Z,76.29
2019-03-26T07:46:53.052Z,74.03
2019-03-26T07:51:55.619Z,73.94
2019-03-26T07:56:58.258Z,73.56
2019-03-26T08:02:01.001Z,73.31
2019-03-26T08:07:03.638Z,71.92
2019-03-26T08:12:06.507Z,72.19
2019-03-26T08:17:09.046Z,71.22
2019-03-26T08:22:13.068Z,69.65
2019-03-26T08:27:15.676Z,68.31
2019-03-26T08:32:18.278Z,64.39
2019-03-26T08:37:20.890Z,63.14
2019-03-26T08:42:23.770Z,62.67
2019-03-26T08:47:26.382Z,62.35
2019-03-26T08:52:28.977Z,61.22
2019-03-26T08:57:31.659Z,60.65
2019-03-26T09:02:34.246Z,59.62
2019-03-26T09:07:36.889Z,59.96
2019-03-26T09:12:39.916Z,59.38
2019-03-26T09:17:44.407Z,59.47
2019-03-26T09:22:47.183Z,59.84
2019-03-26T09:27:52.361Z,58.51
2019-03-26T09:32:54.317Z,58.03
2019-03-26T09:37:57.003Z,57.19
2019-03-26T09:42:59.702Z,57.07
2019-03-26T09:48:02.304Z,56.79
2019-03-26T09:53:04.908Z,56.54
2019-03-26T09:58:07.489Z,56.93
2019-03-26T10:03:10.138Z,56.87
2019-03-26T10:08:12.812Z,56.38
2019-03-26T10:13:15.494Z,56.14
2019-03-26T10:18:18.118Z,55.56
2019-03-26T10:23:20.876Z,54.90
2019-03-26T10:28:23.849Z,54.62
2019-03-26T10:33:26.494Z,54.80
2019-03-26T10:38:29.101Z,54.88
2019-03-26T10:43:31.842Z,55.66
2019-03-26T10:48:34.426Z,55.39
2019-03-26T10:53:37.253Z,56.33
2019-03-26T10:58:39.910Z,57.11
2019-03-26T11:03:42.903Z,57.37
2019-03-26T11:08:45.536Z,57.59
2019-03-26T11:13:48.104Z,56.84
2019-03-26T11:18:50.748Z,56.27
2019-03-26T11:23:53.462Z,55.59
2019-03-26T11:28:56.025Z,54.36
2019-03-26T11:33:58.884Z,52.88
2019-03-26T11:39:01.867Z,54.41
2019-03-26T11:44:04.982Z,54.59
2019-03-26T11:49:07.906Z,55.04
2019-03-26T11:54:10.538Z,54.41
2019-03-26T11:59:13.198Z,54.66
2019-03-26T12:04:15.963Z,54.75
2019-03-26T12:09:19.160Z,54.92
2019-03-26T12:14:21.962Z,54.52
2019-03-26T12:19:24.581Z,54.07
2019-03-26T12:24:27.232Z,53.13
2019-03-26T12:29:29.827Z,53.12
2019-03-26T12:34:38.559Z,53.04
2019-03-26T12:39:44.078Z,52.82
2019-03-26T12:44:46.038Z,52.38
2019-03-26T12:49:48.640Z,51.59
2019-03-26T12:54:53.548Z,50.82
2019-03-26T12:59:56.313Z,51.96
2019-03-26T13:04:59.113Z,51.80
2019-03-26T13:10:13.318Z,51.62
2019-03-26T13:15:08.385Z,51.19
2019-03-26T13:20:12.004Z,51.86
2019-03-26T13:25:14.702Z,51.61
2019-03-26T13:30:17.708Z,51.15
2019-03-26T13:35:20.700Z,49.68
2019-03-26T13:40:27.583Z,48.96
2019-03-26T13:45:27.852Z,48.89
2019-03-26T13:50:30.490Z,47.08
2019-03-26T13:55:33.065Z,47.08
2019-03-26T14:00:37.434Z,45.07
2019-03-26T14:05:39.997Z,45.07
2019-03-26T14:10:42.618Z,44.40
2019-03-26T14:15:45.472Z,44.32
2019-03-26T14:20:48.137Z,44.39
2019-03-26T14:25:50.851Z,45.09
2019-03-26T14:30:53.643Z,45.41
2019-03-26T14:35:56.346Z,45.40
2019-03-26T14:40:58.955Z,46.13
2019-03-26T14:46:01.621Z,46.13
2019-03-26T14:51:04.262Z,45.77
2019-03-26T14:56:06.869Z,46.24
2019-03-26T15:01:09.613Z,46.24
2019-03-26T15:06:12.229Z,46.50
2019-03-26T15:11:14.777Z,46.83
2019-03-26T15:16:17.403Z,46.64
2019-03-26T15:21:19.989Z,47.00
2019-03-26T15:26:22.878Z,47.00
2019-03-26T15:31:25.441Z,46.92
2019-03-26T15:36:28.107Z,47.53
2019-03-26T15:41:30.789Z,47.84
2019-03-26T15:46:36.270Z,48.10
2019-03-26T15:51:37.907Z,47.91
2019-03-26T15:56:40.514Z,48.46
2019-03-26T16:01:43.281Z,47.04
2019-03-26T16:06:45.828Z,49.08
2019-03-26T16:11:48.461Z,49.08
2019-03-26T16:16:51.290Z,50.13
2019-03-26T16:21:54.139Z,50.15
2019-03-26T16:26:56.739Z,50.40
2019-03-26T16:31:59.386Z,51.03
2019-03-26T16:37:02.001Z,51.11
2019-03-26T16:42:04.715Z,51.51
2019-03-26T16:47:09.933Z,51.72
2019-03-26T16:52:12.809Z,52.04
2019-03-26T16:57:15.395Z,52.48
2019-03-26T17:02:18.295Z,52.86
2019-03-26T17:07:20.982Z,53.22
2019-03-26T17:12:23.678Z,53.79
2019-03-26T17:17:26.275Z,54.30
2019-03-26T17:22:29.139Z,54.46
2019-03-26T17:27:31.767Z,54.94
2019-03-26T17:32:34.388Z,55.44
2019-03-26T17:37:36.997Z,55.65
2019-03-26T17:42:39.602Z,55.92
2019-03-26T17:47:42.215Z,56.14
2019-03-26T17:52:45.854Z,56.32
2019-03-26T17:57:48.465Z,56.68
2019-03-26T18:02:51.048Z,57.13
2019-03-26T18:07:54.821Z,57.32
2019-03-26T18:12:57.416Z,57.77
2019-03-26T18:18:00.021Z,57.86
2019-03-26T18:23:02.616Z,58.13
2019-03-26T18:28:05.424Z,58.36
2019-03-26T18:33:08.134Z,58.51
2019-03-26T18:38:14.745Z,58.76
2019-03-26T18:43:16.396Z,58.82
2019-03-26T18:48:19.348Z,59.07
2019-03-26T18:53:22.029Z,59.24
2019-03-26T18:58:24.716Z,59.59
2019-03-26T19:03:27.663Z,59.67
2019-03-26T19:08:30.494Z,60.17
2019-03-26T19:13:33.129Z,60.62
2019-03-26T19:18:35.829Z,61.04
2019-03-26T19:23:38.507Z,61.29
2019-03-26T19:28:41.179Z,61.44
2019-03-26T19:33:43.856Z,61.61
2019-03-26T19:38:46.421Z,61.66
2019-03-26T19:43:49.251Z,61.94
2019-03-26T19:48:51.891Z,62.05
2019-03-26T19:53:54.531Z,62.38
2019-03-26T19:58:57.136Z,62.76
2019-03-26T20:03:59.820Z,62.79
2019-03-26T20:09:04.050Z,63.36
2019-03-26T20:14:06.649Z,63.48
2019-03-26T20:19:09.734Z,63.95
2019-03-26T20:24:12.443Z,63.96
2019-03-26T20:29:16.053Z,63.85
2019-03-26T20:34:18.690Z,64.33
2019-03-26T20:39:21.608Z,64.63
2019-03-26T20:44:24.449Z,65.07
2019-03-26T20:49:27.097Z,65.40
2019-03-26T20:54:29.772Z,65.62
2019-03-26T20:59:32.700Z,65.70
2019-03-26T21:04:35.357Z,65.85
2019-03-26T21:09:38.052Z,66.13
2019-03-26T21:14:40.955Z,66.08
2019-03-26T21:19:43.658Z,65.95
2019-03-26T21:24:46.603Z,65.96
2019-03-26T21:29:49.589Z,65.95
2019-03-26T21:34:56.416Z,66.02
2019-03-26T21:40:06.139Z,65.72
2019-03-26T21:45:09.515Z,65.73
2019-03-26T21:50:12.772Z,65.87
2019-03-26T21:55:15.556Z,65.82
2019-03-26T22:00:18.558Z,66.12
2019-03-26T22:05:21.291Z,66.25
2019-03-26T22:10:24.160Z,66.46
2019-03-26T22:15:27.981Z,66.54
2019-03-26T22:20:30.557Z,66.68
2019-03-26T22:25:33.186Z,66.79
2019-03-26T22:30:41.632Z,66.83
2019-03-26T22:35:44.402Z,66.85
2019-03-26T22:40:47.032Z,66.83
2019-03-26T22:45:49.641Z,66.92
2019-03-26T22:50:52.286Z,66.86
2019-03-26T22:55:55.398Z,66.99
2019-03-26T23:00:58.012Z,67.06
2019-03-26T23:06:01.044Z,67.23
2019-03-26T23:11:03.851Z,67.07
2019-03-26T23:16:06.616Z,67.31
2019-03-26T23:21:09.288Z,67.05
2019-03-26T23:26:11.851Z,67.15
2019-03-26T23:31:14.750Z,67.26
2019-03-26T23:36:17.479Z,67.61
2019-03-26T23:41:20.165Z,67.45
2019-03-26T23:46:22.941Z,67.41
2019-03-26T23:51:25.546Z,67.87
2019-03-26T23:56:29.162Z,68.17
